sensor_id;sensor_type;location;lat;lon;timestamp;P1;durP1;ratioP1;P2;durP2;ratioP2
48203;SDS011;33994;50.998;5.864;2023-05-03T00:02:38;18.23;;;5.05;;
48203;SDS011;33994;50.998;5.864;2023-05-03T00:05:41;10.82;;;4.40;;
48203;SDS011;33994;50.998;5.864;2023-05-03T00:08:44;11.68;;;4.82;;
48203;SDS011;33994;50.998;5.864;2023-05-03T00:11:48;12.38;;;6.20;;
48203;SDS011;33994;50.998;5.864;2023-05-03T00:14:51;12.80;;;4.63;;
48203;SDS011;33994;50.998;5.864;2023-05-03T00:17:55;6.35;;;4.25;;
48203;SDS011;33994;50.998;5.864;2023-05-03T00:20:59;12.73;;;5.43;;
48203;SDS011;33994;50.998;5.864;2023-05-03T00:24:02;9.32;;;4.97;;
48203;SDS011;33994;50.998;5.864;2023-05-03T00:27:06;11.15;;;5.47;;
48203;SDS011;33994;50.998;5.864;2023-05-03T00:30:09;10.43;;;5.13;;
48203;SDS011;33994;50.998;5.864;2023-05-03T00:33:14;10.02;;;5.10;;
48203;SDS011;33994;50.998;5.864;2023-05-03T00:36:18;13.77;;;5.00;;
48203;SDS011;33994;50.998;5.864;2023-05-03T00:39:21;9.23;;;4.88;;
48203;SDS011;33994;50.998;5.864;2023-05-03T00:42:24;10.15;;;4.90;;
48203;SDS011;33994;50.998;5.864;2023-05-03T00:45:28;11.32;;;5.07;;
48203;SDS011;33994;50.998;5.864;2023-05-03T00:48:34;9.02;;;5.18;;
48203;SDS011;33994;50.998;5.864;2023-05-03T00:51:37;9.55;;;5.18;;
48203;SDS011;33994;50.998;5.864;2023-05-03T00:54:40;12.30;;;5.28;;
48203;SDS011;33994;50.998;5.864;2023-05-03T00:57:43;12.10;;;4.78;;
48203;SDS011;33994;50.998;5.864;2023-05-03T01:00:47;15.45;;;5.68;;
48203;SDS011;33994;50.998;5.864;2023-05-03T01:03:51;9.23;;;5.50;;
48203;SDS011;33994;50.998;5.864;2023-05-03T01:06:58;11.27;;;4.90;;
48203;SDS011;33994;50.998;5.864;2023-05-03T01:10:25;9.05;;;4.93;;
48203;SDS011;33994;50.998;5.864;2023-05-03T01:13:39;11.43;;;5.43;;
48203;SDS011;33994;50.998;5.864;2023-05-03T01:16:46;18.35;;;6.55;;
48203;SDS011;33994;50.998;5.864;2023-05-03T01:19:55;10.75;;;4.80;;
48203;SDS011;33994;50.998;5.864;2023-05-03T01:23:05;10.13;;;4.25;;
48203;SDS011;33994;50.998;5.864;2023-05-03T01:26:16;10.57;;;5.15;;
48203;SDS011;33994;50.998;5.864;2023-05-03T01:29:21;12.93;;;4.90;;
48203;SDS011;33994;50.998;5.864;2023-05-03T01:32:25;10.98;;;5.13;;
48203;SDS011;33994;50.998;5.864;2023-05-03T01:35:39;9.77;;;4.63;;
48203;SDS011;33994;50.998;5.864;2023-05-03T01:38:43;9.75;;;4.97;;
48203;SDS011;33994;50.998;5.864;2023-05-03T01:41:49;13.02;;;4.93;;
48203;SDS011;33994;50.998;5.864;2023-05-03T01:44:52;11.55;;;5.55;;
48203;SDS011;33994;50.998;5.864;2023-05-03T01:47:56;10.15;;;5.68;;
48203;SDS011;33994;50.998;5.864;2023-05-03T01:50:59;10.10;;;5.95;;
48203;SDS011;33994;50.998;5.864;2023-05-03T01:54:02;13.20;;;5.78;;
48203;SDS011;33994;50.998;5.864;2023-05-03T01:57:07;9.77;;;5.30;;
48203;SDS011;33994;50.998;5.864;2023-05-03T02:00:11;10.18;;;4.90;;
48203;SDS011;33994;50.998;5.864;2023-05-03T02:03:14;13.35;;;6.15;;
48203;SDS011;33994;50.998;5.864;2023-05-03T02:06:17;12.38;;;5.82;;
48203;SDS011;33994;50.998;5.864;2023-05-03T02:09:21;11.52;;;6.07;;
48203;SDS011;33994;50.998;5.864;2023-05-03T02:12:25;10.27;;;5.20;;
48203;SDS011;33994;50.998;5.864;2023-05-03T02:15:29;15.75;;;6.20;;
48203;SDS011;33994;50.998;5.864;2023-05-03T02:18:32;13.70;;;5.78;;
48203;SDS011;33994;50.998;5.864;2023-05-03T02:21:36;14.70;;;6.57;;
48203;SDS011;33994;50.998;5.864;2023-05-03T02:24:39;14.80;;;6.20;;
48203;SDS011;33994;50.998;5.864;2023-05-03T02:27:43;14.05;;;5.65;;
48203;SDS011;33994;50.998;5.864;2023-05-03T02:30:46;13.20;;;5.50;;
48203;SDS011;33994;50.998;5.864;2023-05-03T02:33:50;15.20;;;6.00;;
48203;SDS011;33994;50.998;5.864;2023-05-03T02:36:53;11.75;;;5.53;;
48203;SDS011;33994;50.998;5.864;2023-05-03T02:39:56;14.18;;;5.93;;
48203;SDS011;33994;50.998;5.864;2023-05-03T02:43:01;12.18;;;5.10;;
48203;SDS011;33994;50.998;5.864;2023-05-03T02:46:04;13.73;;;5.78;;
48203;SDS011;33994;50.998;5.864;2023-05-03T02:49:07;15.30;;;6.38;;
48203;SDS011;33994;50.998;5.864;2023-05-03T02:52:10;12.73;;;6.15;;
48203;SDS011;33994;50.998;5.864;2023-05-03T02:55:14;11.27;;;6.43;;
48203;SDS011;33994;50.998;5.864;2023-05-03T02:58:18;15.73;;;6.15;;
48203;SDS011;33994;50.998;5.864;2023-05-03T03:01:21;10.75;;;6.00;;
48203;SDS011;33994;50.998;5.864;2023-05-03T03:04:24;16.60;;;5.88;;
48203;SDS011;33994;50.998;5.864;2023-05-03T03:07:27;11.25;;;5.78;;
48203;SDS011;33994;50.998;5.864;2023-05-03T03:10:31;12.70;;;5.97;;
48203;SDS011;33994;50.998;5.864;2023-05-03T03:13:35;12.63;;;6.45;;
48203;SDS011;33994;50.998;5.864;2023-05-03T03:16:38;14.30;;;6.28;;
48203;SDS011;33994;50.998;5.864;2023-05-03T03:19:41;10.68;;;5.97;;
48203;SDS011;33994;50.998;5.864;2023-05-03T03:22:44;11.77;;;6.07;;
48203;SDS011;33994;50.998;5.864;2023-05-03T03:25:48;13.50;;;6.53;;
48203;SDS011;33994;50.998;5.864;2023-05-03T03:28:52;11.68;;;6.38;;
48203;SDS011;33994;50.998;5.864;2023-05-03T03:31:55;15.93;;;6.18;;
48203;SDS011;33994;50.998;5.864;2023-05-03T03:34:59;15.05;;;6.82;;
48203;SDS011;33994;50.998;5.864;2023-05-03T03:38:02;14.50;;;6.75;;
48203;SDS011;33994;50.998;5.864;2023-05-03T03:41:05;13.65;;;6.82;;
48203;SDS011;33994;50.998;5.864;2023-05-03T03:44:10;14.70;;;6.72;;
48203;SDS011;33994;50.998;5.864;2023-05-03T03:47:12;12.05;;;6.45;;
48203;SDS011;33994;50.998;5.864;2023-05-03T03:50:16;15.85;;;7.05;;
48203;SDS011;33994;50.998;5.864;2023-05-03T03:53:19;17.38;;;6.22;;
48203;SDS011;33994;50.998;5.864;2023-05-03T03:56:22;15.90;;;6.18;;
48203;SDS011;33994;50.998;5.864;2023-05-03T03:59:27;13.43;;;6.35;;
48203;SDS011;33994;50.998;5.864;2023-05-03T04:02:30;17.83;;;7.10;;
48203;SDS011;33994;50.998;5.864;2023-05-03T04:05:33;11.93;;;7.15;;
48203;SDS011;33994;50.998;5.864;2023-05-03T04:08:36;16.20;;;7.28;;
48203;SDS011;33994;50.998;5.864;2023-05-03T04:11:39;13.18;;;7.28;;
48203;SDS011;33994;50.998;5.864;2023-05-03T04:14:44;16.02;;;7.10;;
48203;SDS011;33994;50.998;5.864;2023-05-03T04:17:47;15.20;;;7.38;;
48203;SDS011;33994;50.998;5.864;2023-05-03T04:20:50;13.00;;;6.63;;
48203;SDS011;33994;50.998;5.864;2023-05-03T04:23:53;16.25;;;6.90;;
48203;SDS011;33994;50.998;5.864;2023-05-03T04:26:56;13.15;;;6.75;;
48203;SDS011;33994;50.998;5.864;2023-05-03T04:30:01;17.23;;;7.45;;
48203;SDS011;33994;50.998;5.864;2023-05-03T04:33:04;15.15;;;7.28;;
48203;SDS011;33994;50.998;5.864;2023-05-03T04:36:08;14.05;;;7.03;;
48203;SDS011;33994;50.998;5.864;2023-05-03T04:39:11;14.20;;;7.20;;
48203;SDS011;33994;50.998;5.864;2023-05-03T04:42:14;18.40;;;7.88;;
48203;SDS011;33994;50.998;5.864;2023-05-03T04:45:19;14.45;;;7.28;;
48203;SDS011;33994;50.998;5.864;2023-05-03T04:48:22;12.90;;;7.38;;
48203;SDS011;33994;50.998;5.864;2023-05-03T04:51:25;21.02;;;7.80;;
48203;SDS011;33994;50.998;5.864;2023-05-03T04:54:28;14.68;;;7.82;;
48203;SDS011;33994;50.998;5.864;2023-05-03T04:57:32;13.30;;;6.65;;
48203;SDS011;33994;50.998;5.864;2023-05-03T05:00:37;14.32;;;7.38;;
48203;SDS011;33994;50.998;5.864;2023-05-03T05:03:41;10.90;;;7.10;;
48203;SDS011;33994;50.998;5.864;2023-05-03T05:06:44;11.10;;;6.53;;
48203;SDS011;33994;50.998;5.864;2023-05-03T05:09:47;10.32;;;6.72;;
48203;SDS011;33994;50.998;5.864;2023-05-03T05:12:50;16.88;;;7.25;;
48203;SDS011;33994;50.998;5.864;2023-05-03T05:15:54;14.43;;;6.65;;
48203;SDS011;33994;50.998;5.864;2023-05-03T05:18:58;15.32;;;7.43;;
48203;SDS011;33994;50.998;5.864;2023-05-03T05:22:01;17.10;;;7.65;;
48203;SDS011;33994;50.998;5.864;2023-05-03T05:25:04;11.68;;;7.05;;
48203;SDS011;33994;50.998;5.864;2023-05-03T05:28:08;17.52;;;7.22;;
48203;SDS011;33994;50.998;5.864;2023-05-03T05:31:13;14.57;;;6.38;;
48203;SDS011;33994;50.998;5.864;2023-05-03T05:34:16;13.38;;;6.78;;
48203;SDS011;33994;50.998;5.864;2023-05-03T05:37:19;13.63;;;7.38;;
48203;SDS011;33994;50.998;5.864;2023-05-03T05:40:22;14.98;;;7.60;;
48203;SDS011;33994;50.998;5.864;2023-05-03T05:43:25;12.65;;;6.75;;
48203;SDS011;33994;50.998;5.864;2023-05-03T05:46:30;16.17;;;7.70;;
48203;SDS011;33994;50.998;5.864;2023-05-03T05:49:33;14.90;;;7.28;;
48203;SDS011;33994;50.998;5.864;2023-05-03T05:52:36;16.08;;;6.90;;
48203;SDS011;33994;50.998;5.864;2023-05-03T05:55:39;13.05;;;7.30;;
48203;SDS011;33994;50.998;5.864;2023-05-03T05:58:43;18.83;;;7.95;;
48203;SDS011;33994;50.998;5.864;2023-05-03T06:01:47;12.15;;;7.15;;
48203;SDS011;33994;50.998;5.864;2023-05-03T06:04:50;22.67;;;8.35;;
48203;SDS011;33994;50.998;5.864;2023-05-03T06:07:53;12.23;;;7.07;;
48203;SDS011;33994;50.998;5.864;2023-05-03T06:10:57;15.05;;;7.88;;
48203;SDS011;33994;50.998;5.864;2023-05-03T06:14:00;15.13;;;7.70;;
48203;SDS011;33994;50.998;5.864;2023-05-03T06:17:04;14.73;;;7.60;;
48203;SDS011;33994;50.998;5.864;2023-05-03T06:20:07;15.82;;;7.90;;
48203;SDS011;33994;50.998;5.864;2023-05-03T06:23:11;13.18;;;7.90;;
48203;SDS011;33994;50.998;5.864;2023-05-03T06:26:14;14.30;;;7.70;;
48203;SDS011;33994;50.998;5.864;2023-05-03T06:29:17;12.50;;;7.43;;
48203;SDS011;33994;50.998;5.864;2023-05-03T06:32:22;12.30;;;7.50;;
48203;SDS011;33994;50.998;5.864;2023-05-03T06:35:25;14.70;;;7.03;;
48203;SDS011;33994;50.998;5.864;2023-05-03T06:38:28;15.88;;;8.32;;
48203;SDS011;33994;50.998;5.864;2023-05-03T06:41:31;14.48;;;7.38;;
48203;SDS011;33994;50.998;5.864;2023-05-03T06:44:35;16.98;;;7.15;;
48203;SDS011;33994;50.998;5.864;2023-05-03T06:47:39;14.95;;;7.07;;
48203;SDS011;33994;50.998;5.864;2023-05-03T06:50:43;11.57;;;7.60;;
48203;SDS011;33994;50.998;5.864;2023-05-03T06:53:46;11.63;;;7.43;;
48203;SDS011;33994;50.998;5.864;2023-05-03T06:56:49;14.00;;;8.02;;
48203;SDS011;33994;50.998;5.864;2023-05-03T06:59:52;13.65;;;7.28;;
48203;SDS011;33994;50.998;5.864;2023-05-03T07:02:57;13.45;;;7.45;;
48203;SDS011;33994;50.998;5.864;2023-05-03T07:06:00;17.30;;;7.65;;
48203;SDS011;33994;50.998;5.864;2023-05-03T07:09:03;14.80;;;7.57;;
48203;SDS011;33994;50.998;5.864;2023-05-03T07:12:06;13.98;;;7.50;;
48203;SDS011;33994;50.998;5.864;2023-05-03T07:15:10;14.68;;;7.13;;
48203;SDS011;33994;50.998;5.864;2023-05-03T07:18:14;18.08;;;8.18;;
48203;SDS011;33994;50.998;5.864;2023-05-03T07:21:18;18.30;;;8.63;;
48203;SDS011;33994;50.998;5.864;2023-05-03T07:24:21;14.75;;;8.15;;
48203;SDS011;33994;50.998;5.864;2023-05-03T07:27:24;14.02;;;8.23;;
48203;SDS011;33994;50.998;5.864;2023-05-03T07:30:27;16.63;;;7.43;;
48203;SDS011;33994;50.998;5.864;2023-05-03T07:33:34;14.18;;;7.57;;
48203;SDS011;33994;50.998;5.864;2023-05-03T07:36:37;12.52;;;7.80;;
48203;SDS011;33994;50.998;5.864;2023-05-03T07:39:40;10.63;;;6.85;;
48203;SDS011;33994;50.998;5.864;2023-05-03T07:42:44;18.40;;;7.88;;
48203;SDS011;33994;50.998;5.864;2023-05-03T07:45:47;14.52;;;7.43;;
48203;SDS011;33994;50.998;5.864;2023-05-03T07:48:52;16.77;;;7.80;;
48203;SDS011;33994;50.998;5.864;2023-05-03T07:51:54;17.40;;;7.65;;
48203;SDS011;33994;50.998;5.864;2023-05-03T07:54:58;15.45;;;8.23;;
48203;SDS011;33994;50.998;5.864;2023-05-03T07:58:01;20.58;;;7.95;;
48203;SDS011;33994;50.998;5.864;2023-05-03T08:01:04;14.93;;;7.38;;
48203;SDS011;33994;50.998;5.864;2023-05-03T08:04:09;12.73;;;7.45;;
48203;SDS011;33994;50.998;5.864;2023-05-03T08:07:12;16.75;;;7.90;;
48203;SDS011;33994;50.998;5.864;2023-05-03T08:10:15;14.95;;;7.55;;
48203;SDS011;33994;50.998;5.864;2023-05-03T08:13:18;18.65;;;8.10;;
48203;SDS011;33994;50.998;5.864;2023-05-03T08:16:21;13.55;;;7.65;;
48203;SDS011;33994;50.998;5.864;2023-05-03T08:19:26;16.13;;;8.50;;
48203;SDS011;33994;50.998;5.864;2023-05-03T08:22:29;11.13;;;7.38;;
48203;SDS011;33994;50.998;5.864;2023-05-03T08:25:32;16.13;;;7.28;;
48203;SDS011;33994;50.998;5.864;2023-05-03T08:28:35;14.48;;;7.93;;
48203;SDS011;33994;50.998;5.864;2023-05-03T08:31:38;17.63;;;8.30;;
48203;SDS011;33994;50.998;5.864;2023-05-03T08:34:43;13.57;;;6.90;;
48203;SDS011;33994;50.998;5.864;2023-05-03T08:37:46;16.45;;;6.95;;
48203;SDS011;33994;50.998;5.864;2023-05-03T08:40:50;12.88;;;6.95;;
48203;SDS011;33994;50.998;5.864;2023-05-03T08:43:54;18.05;;;7.95;;
48203;SDS011;33994;50.998;5.864;2023-05-03T08:46:58;21.83;;;8.98;;
48203;SDS011;33994;50.998;5.864;2023-05-03T08:50:03;18.30;;;7.70;;
48203;SDS011;33994;50.998;5.864;2023-05-03T08:53:07;13.80;;;7.30;;
48203;SDS011;33994;50.998;5.864;2023-05-03T08:59:30;16.00;;;7.28;;
48203;SDS011;33994;50.998;5.864;2023-05-03T09:02:34;12.98;;;7.03;;
48203;SDS011;33994;50.998;5.864;2023-05-03T09:05:38;16.00;;;7.60;;
48203;SDS011;33994;50.998;5.864;2023-05-03T09:08:42;15.88;;;7.93;;
48203;SDS011;33994;50.998;5.864;2023-05-03T09:11:45;18.77;;;6.90;;
48203;SDS011;33994;50.998;5.864;2023-05-03T09:14:48;16.35;;;6.47;;
48203;SDS011;33994;50.998;5.864;2023-05-03T09:24:20;16.77;;;7.25;;
48203;SDS011;33994;50.998;5.864;2023-05-03T09:27:23;15.50;;;6.05;;
48203;SDS011;33994;50.998;5.864;2023-05-03T09:30:27;16.20;;;6.53;;
48203;SDS011;33994;50.998;5.864;2023-05-03T09:33:31;19.70;;;7.18;;
48203;SDS011;33994;50.998;5.864;2023-05-03T09:40:20;14.60;;;6.95;;
48203;SDS011;33994;50.998;5.864;2023-05-03T09:43:23;14.13;;;6.82;;
48203;SDS011;33994;50.998;5.864;2023-05-03T09:46:36;13.70;;;6.85;;
48203;SDS011;33994;50.998;5.864;2023-05-03T09:49:48;11.73;;;6.30;;
48203;SDS011;33994;50.998;5.864;2023-05-03T09:52:52;14.98;;;7.13;;
48203;SDS011;33994;50.998;5.864;2023-05-03T09:59:05;12.90;;;6.97;;
48203;SDS011;33994;50.998;5.864;2023-05-03T10:02:12;13.25;;;7.10;;
48203;SDS011;33994;50.998;5.864;2023-05-03T10:05:15;14.15;;;7.03;;
48203;SDS011;33994;50.998;5.864;2023-05-03T10:08:21;16.63;;;6.57;;
48203;SDS011;33994;50.998;5.864;2023-05-03T10:11:32;12.93;;;6.70;;
48203;SDS011;33994;50.998;5.864;2023-05-03T10:14:36;13.35;;;7.20;;
48203;SDS011;33994;50.998;5.864;2023-05-03T10:17:42;13.52;;;6.88;;
48203;SDS011;33994;50.998;5.864;2023-05-03T10:20:48;13.25;;;6.07;;
48203;SDS011;33994;50.998;5.864;2023-05-03T10:24:10;12.73;;;6.90;;
48203;SDS011;33994;50.998;5.864;2023-05-03T10:27:16;15.07;;;6.45;;
48203;SDS011;33994;50.998;5.864;2023-05-03T10:30:26;14.90;;;6.80;;
48203;SDS011;33994;50.998;5.864;2023-05-03T10:33:31;15.85;;;7.43;;
48203;SDS011;33994;50.998;5.864;2023-05-03T10:36:35;14.30;;;7.70;;
48203;SDS011;33994;50.998;5.864;2023-05-03T10:39:43;15.00;;;8.10;;
48203;SDS011;33994;50.998;5.864;2023-05-03T10:45:54;10.75;;;6.95;;
48203;SDS011;33994;50.998;5.864;2023-05-03T10:49:25;14.18;;;6.97;;
48203;SDS011;33994;50.998;5.864;2023-05-03T11:10:25;16.35;;;8.57;;
48203;SDS011;33994;50.998;5.864;2023-05-03T11:13:29;21.20;;;8.48;;
48203;SDS011;33994;50.998;5.864;2023-05-03T11:16:33;17.67;;;8.60;;
48203;SDS011;33994;50.998;5.864;2023-05-03T11:19:37;16.10;;;8.95;;
48203;SDS011;33994;50.998;5.864;2023-05-03T11:22:40;18.55;;;9.20;;
48203;SDS011;33994;50.998;5.864;2023-05-03T11:25:43;16.23;;;8.52;;
48203;SDS011;33994;50.998;5.864;2023-05-03T11:28:46;16.90;;;8.48;;
48203;SDS011;33994;50.998;5.864;2023-05-03T11:31:51;15.10;;;9.25;;
48203;SDS011;33994;50.998;5.864;2023-05-03T11:34:55;16.40;;;8.88;;
48203;SDS011;33994;50.998;5.864;2023-05-03T11:37:59;14.73;;;9.40;;
48203;SDS011;33994;50.998;5.864;2023-05-03T11:41:08;13.93;;;8.73;;
48203;SDS011;33994;50.998;5.864;2023-05-03T11:44:14;14.93;;;8.52;;
48203;SDS011;33994;50.998;5.864;2023-05-03T11:47:19;14.82;;;9.48;;
48203;SDS011;33994;50.998;5.864;2023-05-03T11:50:25;14.68;;;9.32;;
48203;SDS011;33994;50.998;5.864;2023-05-03T11:53:29;16.02;;;9.80;;
48203;SDS011;33994;50.998;5.864;2023-05-03T11:56:32;12.50;;;8.23;;
48203;SDS011;33994;50.998;5.864;2023-05-03T11:59:36;15.40;;;7.85;;
48203;SDS011;33994;50.998;5.864;2023-05-03T12:02:40;15.63;;;8.18;;
48203;SDS011;33994;50.998;5.864;2023-05-03T12:05:44;20.35;;;10.43;;
48203;SDS011;33994;50.998;5.864;2023-05-03T12:08:47;11.85;;;8.30;;
48203;SDS011;33994;50.998;5.864;2023-05-03T12:11:51;18.13;;;8.82;;
48203;SDS011;33994;50.998;5.864;2023-05-03T12:14:55;21.40;;;8.00;;
48203;SDS011;33994;50.998;5.864;2023-05-03T12:18:00;12.25;;;8.50;;
48203;SDS011;33994;50.998;5.864;2023-05-03T12:21:07;16.15;;;7.25;;
48203;SDS011;33994;50.998;5.864;2023-05-03T12:24:11;17.00;;;7.88;;
48203;SDS011;33994;50.998;5.864;2023-05-03T12:27:14;13.25;;;7.10;;
48203;SDS011;33994;50.998;5.864;2023-05-03T12:30:17;13.95;;;7.32;;
48203;SDS011;33994;50.998;5.864;2023-05-03T12:33:21;11.77;;;6.78;;
48203;SDS011;33994;50.998;5.864;2023-05-03T12:36:24;12.43;;;7.38;;
48203;SDS011;33994;50.998;5.864;2023-05-03T12:39:30;14.00;;;7.43;;
48203;SDS011;33994;50.998;5.864;2023-05-03T12:42:33;10.88;;;5.85;;
48203;SDS011;33994;50.998;5.864;2023-05-03T12:45:36;10.20;;;6.50;;
48203;SDS011;33994;50.998;5.864;2023-05-03T12:48:41;12.85;;;6.75;;
48203;SDS011;33994;50.998;5.864;2023-05-03T12:51:44;15.85;;;6.50;;
48203;SDS011;33994;50.998;5.864;2023-05-03T12:54:47;12.10;;;6.53;;
48203;SDS011;33994;50.998;5.864;2023-05-03T12:57:50;14.02;;;6.38;;
48203;SDS011;33994;50.998;5.864;2023-05-03T13:00:54;12.55;;;7.22;;
48203;SDS011;33994;50.998;5.864;2023-05-03T13:04:00;14.25;;;6.28;;
48203;SDS011;33994;50.998;5.864;2023-05-03T13:07:03;14.18;;;6.00;;
48203;SDS011;33994;50.998;5.864;2023-05-03T13:10:07;15.32;;;6.00;;
48203;SDS011;33994;50.998;5.864;2023-05-03T13:13:10;11.20;;;6.00;;
48203;SDS011;33994;50.998;5.864;2023-05-03T13:16:13;11.93;;;6.60;;
48203;SDS011;33994;50.998;5.864;2023-05-03T13:19:18;15.50;;;5.85;;
48203;SDS011;33994;50.998;5.864;2023-05-03T13:22:21;15.00;;;6.32;;
48203;SDS011;33994;50.998;5.864;2023-05-03T13:25:24;13.02;;;6.18;;
48203;SDS011;33994;50.998;5.864;2023-05-03T13:28:27;9.93;;;5.50;;
48203;SDS011;33994;50.998;5.864;2023-05-03T13:31:31;10.20;;;6.18;;
48203;SDS011;33994;50.998;5.864;2023-05-03T13:34:35;12.43;;;5.97;;
48203;SDS011;33994;50.998;5.864;2023-05-03T13:37:38;15.88;;;6.93;;
48203;SDS011;33994;50.998;5.864;2023-05-03T13:40:41;10.88;;;5.28;;
48203;SDS011;33994;50.998;5.864;2023-05-03T13:43:44;10.85;;;6.03;;
48203;SDS011;33994;50.998;5.864;2023-05-03T13:46:48;10.95;;;5.85;;
48203;SDS011;33994;50.998;5.864;2023-05-03T13:49:55;9.88;;;5.70;;
48203;SDS011;33994;50.998;5.864;2023-05-03T13:52:58;11.10;;;6.40;;
48203;SDS011;33994;50.998;5.864;2023-05-03T13:56:01;10.45;;;6.47;;
48203;SDS011;33994;50.998;5.864;2023-05-03T13:59:05;15.07;;;6.43;;
48203;SDS011;33994;50.998;5.864;2023-05-03T14:02:09;11.65;;;5.68;;
48203;SDS011;33994;50.998;5.864;2023-05-03T14:05:15;11.60;;;6.30;;
48203;SDS011;33994;50.998;5.864;2023-05-03T14:08:18;11.55;;;6.25;;
48203;SDS011;33994;50.998;5.864;2023-05-03T14:11:22;11.55;;;6.00;;
48203;SDS011;33994;50.998;5.864;2023-05-03T14:14:25;22.45;;;7.40;;
48203;SDS011;33994;50.998;5.864;2023-05-03T14:17:28;12.30;;;6.22;;
48203;SDS011;33994;50.998;5.864;2023-05-03T14:20:33;13.32;;;6.13;;
48203;SDS011;33994;50.998;5.864;2023-05-03T14:23:37;10.00;;;6.07;;
48203;SDS011;33994;50.998;5.864;2023-05-03T14:26:40;9.20;;;6.43;;
48203;SDS011;33994;50.998;5.864;2023-05-03T14:29:43;12.38;;;6.50;;
48203;SDS011;33994;50.998;5.864;2023-05-03T14:32:46;14.52;;;6.25;;
48203;SDS011;33994;50.998;5.864;2023-05-03T14:35:51;15.52;;;6.22;;
48203;SDS011;33994;50.998;5.864;2023-05-03T14:38:54;12.57;;;6.20;;
48203;SDS011;33994;50.998;5.864;2023-05-03T14:41:57;11.18;;;6.13;;
48203;SDS011;33994;50.998;5.864;2023-05-03T14:45:01;13.05;;;6.15;;
48203;SDS011;33994;50.998;5.864;2023-05-03T14:48:04;10.20;;;5.28;;
48203;SDS011;33994;50.998;5.864;2023-05-03T14:51:09;10.55;;;6.00;;
48203;SDS011;33994;50.998;5.864;2023-05-03T14:54:13;15.65;;;6.07;;
48203;SDS011;33994;50.998;5.864;2023-05-03T14:57:16;11.45;;;6.72;;
48203;SDS011;33994;50.998;5.864;2023-05-03T15:00:19;11.50;;;5.93;;
48203;SDS011;33994;50.998;5.864;2023-05-03T15:03:23;14.88;;;6.13;;
48203;SDS011;33994;50.998;5.864;2023-05-03T15:06:27;13.57;;;5.75;;
48203;SDS011;33994;50.998;5.864;2023-05-03T15:09:31;9.00;;;5.80;;
48203;SDS011;33994;50.998;5.864;2023-05-03T15:12:34;13.13;;;6.05;;
48203;SDS011;33994;50.998;5.864;2023-05-03T15:15:39;15.15;;;6.40;;
48203;SDS011;33994;50.998;5.864;2023-05-03T15:18:43;12.15;;;5.80;;
48203;SDS011;33994;50.998;5.864;2023-05-03T15:21:48;14.35;;;6.57;;
48203;SDS011;33994;50.998;5.864;2023-05-03T15:24:52;10.30;;;5.38;;
48203;SDS011;33994;50.998;5.864;2023-05-03T15:27:55;11.20;;;5.93;;
48203;SDS011;33994;50.998;5.864;2023-05-03T15:30:58;12.25;;;5.95;;
48203;SDS011;33994;50.998;5.864;2023-05-03T15:34:01;15.75;;;5.80;;
48203;SDS011;33994;50.998;5.864;2023-05-03T15:37:06;13.32;;;6.00;;
48203;SDS011;33994;50.998;5.864;2023-05-03T15:40:09;13.90;;;6.00;;
48203;SDS011;33994;50.998;5.864;2023-05-03T15:43:13;10.85;;;5.53;;
48203;SDS011;33994;50.998;5.864;2023-05-03T15:46:16;13.82;;;6.20;;
48203;SDS011;33994;50.998;5.864;2023-05-03T15:49:19;8.93;;;5.47;;
48203;SDS011;33994;50.998;5.864;2023-05-03T15:52:24;13.07;;;5.72;;
48203;SDS011;33994;50.998;5.864;2023-05-03T15:55:27;13.40;;;5.57;;
48203;SDS011;33994;50.998;5.864;2023-05-03T15:58:31;12.23;;;5.22;;
48203;SDS011;33994;50.998;5.864;2023-05-03T16:01:34;9.70;;;5.82;;
48203;SDS011;33994;50.998;5.864;2023-05-03T16:04:38;13.23;;;7.03;;
48203;SDS011;33994;50.998;5.864;2023-05-03T16:07:42;13.35;;;6.32;;
48203;SDS011;33994;50.998;5.864;2023-05-03T16:10:45;11.98;;;6.00;;
48203;SDS011;33994;50.998;5.864;2023-05-03T16:13:48;9.48;;;5.50;;
48203;SDS011;33994;50.998;5.864;2023-05-03T16:16:52;11.05;;;6.05;;
48203;SDS011;33994;50.998;5.864;2023-05-03T16:19:55;13.57;;;5.80;;
48203;SDS011;33994;50.998;5.864;2023-05-03T16:23:00;10.82;;;5.72;;
48203;SDS011;33994;50.998;5.864;2023-05-03T16:26:09;13.68;;;5.70;;
48203;SDS011;33994;50.998;5.864;2023-05-03T16:29:12;32.45;;;10.48;;
48203;SDS011;33994;50.998;5.864;2023-05-03T16:32:17;10.55;;;6.32;;
48203;SDS011;33994;50.998;5.864;2023-05-03T16:35:20;9.82;;;5.35;;
48203;SDS011;33994;50.998;5.864;2023-05-03T16:38:25;11.65;;;6.18;;
48203;SDS011;33994;50.998;5.864;2023-05-03T16:41:28;13.30;;;6.15;;
48203;SDS011;33994;50.998;5.864;2023-05-03T16:44:31;11.27;;;5.53;;
48203;SDS011;33994;50.998;5.864;2023-05-03T16:47:34;13.60;;;5.80;;
48203;SDS011;33994;50.998;5.864;2023-05-03T16:50:38;13.10;;;5.80;;
48203;SDS011;33994;50.998;5.864;2023-05-03T16:53:46;15.35;;;6.50;;
48203;SDS011;33994;50.998;5.864;2023-05-03T16:56:49;11.55;;;6.07;;
48203;SDS011;33994;50.998;5.864;2023-05-03T16:59:52;12.90;;;6.72;;
48203;SDS011;33994;50.998;5.864;2023-05-03T17:02:55;12.52;;;6.10;;
48203;SDS011;33994;50.998;5.864;2023-05-03T17:05:58;12.80;;;7.07;;
48203;SDS011;33994;50.998;5.864;2023-05-03T17:09:03;18.17;;;6.78;;
48203;SDS011;33994;50.998;5.864;2023-05-03T17:12:06;12.77;;;6.43;;
48203;SDS011;33994;50.998;5.864;2023-05-03T17:15:09;12.15;;;5.85;;
48203;SDS011;33994;50.998;5.864;2023-05-03T17:18:13;14.80;;;6.05;;
48203;SDS011;33994;50.998;5.864;2023-05-03T17:21:16;12.80;;;6.10;;
48203;SDS011;33994;50.998;5.864;2023-05-03T17:24:21;10.02;;;5.88;;
48203;SDS011;33994;50.998;5.864;2023-05-03T17:27:24;12.07;;;6.32;;
48203;SDS011;33994;50.998;5.864;2023-05-03T17:30:27;16.15;;;7.20;;
48203;SDS011;33994;50.998;5.864;2023-05-03T17:33:31;12.30;;;5.82;;
48203;SDS011;33994;50.998;5.864;2023-05-03T17:36:35;10.45;;;6.05;;
48203;SDS011;33994;50.998;5.864;2023-05-03T17:39:39;14.70;;;6.38;;
48203;SDS011;33994;50.998;5.864;2023-05-03T17:42:42;12.13;;;6.00;;
48203;SDS011;33994;50.998;5.864;2023-05-03T17:45:46;11.18;;;5.63;;
48203;SDS011;33994;50.998;5.864;2023-05-03T17:48:52;12.05;;;6.15;;
48203;SDS011;33994;50.998;5.864;2023-05-03T17:51:55;19.48;;;5.93;;
48203;SDS011;33994;50.998;5.864;2023-05-03T17:55:00;13.55;;;5.97;;
48203;SDS011;33994;50.998;5.864;2023-05-03T17:58:03;12.73;;;5.65;;
48203;SDS011;33994;50.998;5.864;2023-05-03T18:01:06;10.50;;;5.60;;
48203;SDS011;33994;50.998;5.864;2023-05-03T18:04:09;14.05;;;5.93;;
48203;SDS011;33994;50.998;5.864;2023-05-03T18:07:12;12.35;;;6.47;;
48203;SDS011;33994;50.998;5.864;2023-05-03T18:10:17;10.52;;;6.22;;
48203;SDS011;33994;50.998;5.864;2023-05-03T18:13:20;13.00;;;6.85;;
48203;SDS011;33994;50.998;5.864;2023-05-03T18:16:23;11.77;;;6.13;;
48203;SDS011;33994;50.998;5.864;2023-05-03T18:19:27;12.90;;;6.30;;
48203;SDS011;33994;50.998;5.864;2023-05-03T18:22:30;10.55;;;6.53;;
48203;SDS011;33994;50.998;5.864;2023-05-03T18:25:34;10.52;;;5.55;;
48203;SDS011;33994;50.998;5.864;2023-05-03T18:28:38;13.82;;;6.00;;
48203;SDS011;33994;50.998;5.864;2023-05-03T18:31:41;12.68;;;5.63;;
48203;SDS011;33994;50.998;5.864;2023-05-03T18:34:44;11.18;;;6.30;;
48203;SDS011;33994;50.998;5.864;2023-05-03T18:37:49;12.95;;;5.72;;
48203;SDS011;33994;50.998;5.864;2023-05-03T18:40:53;11.80;;;5.90;;
48203;SDS011;33994;50.998;5.864;2023-05-03T18:44:02;11.32;;;5.72;;
48203;SDS011;33994;50.998;5.864;2023-05-03T18:47:05;13.30;;;5.70;;
48203;SDS011;33994;50.998;5.864;2023-05-03T18:50:09;10.40;;;5.75;;
48203;SDS011;33994;50.998;5.864;2023-05-03T18:53:12;10.95;;;6.05;;